Gowen, Oklahoma
Current Conditions -  °F | °C
As of 2:53 AM on Wednesday 26 Nov 2014 (Local Time) from KMLC Reporting Station
Clear Clear  
Wind Chill: 42°   Ceiling: Unl
Heat Index: 45°   Visibility: 10mi
Dew Point: 26°   Wind: 6mph
Humidity: 48%   Direction: 180°S
Pressure: 30"   Gusts: NA
Location:  34.88°N, 95.48°W
Report Text: KMLC 260853Z AUTO 18005KT 10SM CLR 07/M03 A3000 RMK AO2 SLP159 T00721033 58023
Loading
Personal Weather Stations






























Interactive Weather Map New forecast layout! Learn more

10-Day Weather Forecast

Advertisements
Track Severe Weather on mobile